createdAt,value
2019-05-05T00:00:40.334Z,98730.78
2019-05-05T00:04:04.493Z,98732.97
2019-05-05T00:07:25.256Z,98735.06
2019-05-05T00:10:59.213Z,98737.27
2019-05-05T00:14:19.944Z,98734.45
2019-05-05T00:17:34.273Z,98731.42
2019-05-05T00:20:47.967Z,98734.52
2019-05-05T00:24:01.846Z,98731.06
2019-05-05T00:27:15.757Z,98736.37
2019-05-05T00:30:29.360Z,98738.53
2019-05-05T00:33:44.905Z,98738.41
2019-05-05T00:36:58.501Z,98741.26
2019-05-05T00:40:14.255Z,98743.72
2019-05-05T00:43:27.978Z,98740.62
2019-05-05T00:47:06.180Z,98745.50
2019-05-05T00:50:21.153Z,98749.67
2019-05-05T00:53:34.654Z,98754.53
2019-05-05T00:56:48.583Z,98754.53
2019-05-05T01:00:06.819Z,98752.89
2019-05-05T01:03:24.211Z,98760.29
2019-05-05T01:06:37.796Z,98765.17
2019-05-05T01:09:51.384Z,98766.63
2019-05-05T01:13:05.296Z,98766.68
2019-05-05T01:16:18.997Z,98768.28
2019-05-05T01:19:34.856Z,98771.56
2019-05-05T01:22:48.493Z,98779.67
2019-05-05T01:26:02.187Z,98780.98
2019-05-05T01:29:16.185Z,98789.47
2019-05-05T01:32:35.165Z,98796.34
2019-05-05T01:35:49.529Z,98794.39
2019-05-05T01:42:52.334Z,98806.80
2019-05-05T01:46:05.931Z,98805.02
2019-05-05T01:49:19.829Z,98818.09
2019-05-05T01:52:34.475Z,98828.02
2019-05-05T01:55:48.563Z,98827.50
2019-05-05T01:59:02.538Z,98835.64
2019-05-05T02:02:16.122Z,98840.75
2019-05-05T02:05:30.035Z,98849.59
2019-05-05T02:08:45.474Z,98847.59
2019-05-05T02:11:59.397Z,98856.06
2019-05-05T02:15:14.915Z,98864.02
2019-05-05T02:18:28.738Z,98863.50
2019-05-05T02:21:42.430Z,98864.91
2019-05-05T02:24:56.125Z,98874.65
2019-05-05T02:28:09.818Z,98872.31
2019-05-05T02:31:36.235Z,98871.89
2019-05-05T02:34:56.291Z,98874.05
2019-05-05T02:38:10.200Z,98878.17
2019-05-05T02:41:25.570Z,98874.70
2019-05-05T02:44:39.873Z,98880.27
2019-05-05T02:48:14.904Z,98884.21
2019-05-05T02:51:28.206Z,98887.26
2019-05-05T02:54:44.211Z,98887.26
2019-05-05T02:57:58.334Z,98888.75
2019-05-05T03:01:34.133Z,98893.25
2019-05-05T03:04:48.365Z,98896.16
2019-05-05T03:08:04.695Z,98896.20
2019-05-05T03:11:18.469Z,98899.52
2019-05-05T03:14:35.074Z,98900.08
2019-05-05T03:17:48.883Z,98903.36
2019-05-05T03:21:07.215Z,98905.89
2019-05-05T03:24:18.603Z,98902.84
2019-05-05T03:27:34.139Z,98906.66
2019-05-05T03:30:47.949Z,98916.96
2019-05-05T03:34:01.446Z,98920.41
2019-05-05T03:37:15.141Z,98923.86
2019-05-05T03:40:30.716Z,98931.27
2019-05-05T03:44:04.733Z,98933.79
2019-05-05T03:47:19.300Z,98933.66
2019-05-05T03:50:34.067Z,98935.11
2019-05-05T03:53:48.261Z,98936.73
2019-05-05T03:57:08.362Z,98938.55
2019-05-05T04:00:55.557Z,98939.26
2019-05-05T04:04:21.600Z,98934.78
2019-05-05T04:07:35.195Z,98934.78
2019-05-05T04:10:49.105Z,98939.84
2019-05-05T04:14:03.672Z,98944.16
2019-05-05T04:17:44.317Z,98950.47
2019-05-05T04:20:58.030Z,98954.09
2019-05-05T04:24:11.546Z,98961.11
2019-05-05T04:27:25.091Z,98971.05
2019-05-05T04:30:38.574Z,98975.55
2019-05-05T04:33:53.819Z,98979.69
2019-05-05T04:37:07.384Z,98982.59
2019-05-05T04:40:21.085Z,98989.42
2019-05-05T04:43:34.594Z,98992.69
2019-05-05T04:46:51.190Z,98997.73
2019-05-05T04:50:14.950Z,99002.61
2019-05-05T04:53:51.702Z,99001.13
2019-05-05T04:57:05.187Z,98996.98
2019-05-05T05:00:18.920Z,99000.05
2019-05-05T05:03:51.351Z,99009.05
2019-05-05T05:07:04.856Z,99008.50
2019-05-05T05:10:18.375Z,99005.05
2019-05-05T05:16:35.686Z,99004.66
2019-05-05T05:19:49.455Z,99010.83
2019-05-05T05:23:03.746Z,99007.56
2019-05-05T05:26:17.446Z,99001.77
2019-05-05T05:29:31.260Z,99012.19
2019-05-05T05:32:45.079Z,99008.55
2019-05-05T05:35:58.573Z,99014.47
2019-05-05T05:39:26.005Z,99010.48
2019-05-05T05:42:39.478Z,99008.63
2019-05-05T05:46:13.526Z,99004.23
2019-05-05T05:49:31.213Z,99013.79
2019-05-05T05:57:00.542Z,99016.32
2019-05-05T06:00:14.772Z,99019.14
2019-05-05T06:03:28.257Z,99021.80
2019-05-05T06:06:43.762Z,99023.30
2019-05-05T06:09:57.182Z,99018.09
2019-05-05T06:13:10.760Z,99025.20
2019-05-05T06:16:24.254Z,99022.34
2019-05-05T06:19:37.745Z,99028.52
2019-05-05T06:22:53.400Z,99032.95
2019-05-05T06:26:07.342Z,99028.05
2019-05-05T06:29:20.939Z,99022.88
2019-05-05T06:32:34.441Z,99027.62
2019-05-05T06:35:48.138Z,99025.00
2019-05-05T06:39:04.564Z,99028.19
2019-05-05T06:42:27.688Z,99024.39
2019-05-05T06:45:46.454Z,99029.83
2019-05-05T06:48:59.938Z,99027.27
2019-05-05T06:52:14.324Z,99021.27
2019-05-05T06:55:27.903Z,99024.75
2019-05-05T06:58:41.395Z,99021.64
2019-05-05T07:01:55.330Z,99018.02
2019-05-05T07:05:09.347Z,99026.16
2019-05-05T07:08:24.352Z,99019.94
2019-05-05T07:11:38.044Z,99013.72
2019-05-05T07:14:53.777Z,99011.72
2019-05-05T07:18:07.585Z,99022.80
2019-05-05T07:21:23.521Z,99019.75
2019-05-05T07:24:37.451Z,99023.09
2019-05-05T07:27:51.714Z,99014.38
2019-05-05T07:31:05.650Z,99018.90
2019-05-05T07:34:20.126Z,99016.97
2019-05-05T07:37:34.508Z,99025.85
2019-05-05T07:40:48.213Z,99021.22
2019-05-05T07:44:01.851Z,99015.04
2019-05-05T07:47:15.761Z,99023.24
2019-05-05T07:50:32.423Z,99010.81
2019-05-05T07:53:45.553Z,99007.16
2019-05-05T07:56:59.581Z,98994.30
2019-05-05T08:00:14.830Z,98988.44
2019-05-05T08:03:28.733Z,98993.16
2019-05-05T08:06:44.570Z,98992.28
2019-05-05T08:09:58.187Z,98995.49
2019-05-05T08:13:13.461Z,98998.06
2019-05-05T08:16:50.799Z,98995.36
2019-05-05T08:20:11.518Z,99000.37
2019-05-05T08:23:45.807Z,99008.55
2019-05-05T08:27:30.831Z,99008.92
2019-05-05T08:31:06.757Z,99015.28
2019-05-05T08:34:20.480Z,99021.81
2019-05-05T08:37:34.443Z,99025.31
2019-05-05T08:40:48.163Z,99020.47
2019-05-05T08:44:03.679Z,99023.80
2019-05-05T08:47:17.438Z,99022.78
2019-05-05T08:50:30.908Z,99029.46
2019-05-05T08:53:54.622Z,99039.55
2019-05-05T08:57:08.631Z,99033.78
2019-05-05T09:00:24.319Z,99036.72
2019-05-05T09:03:37.932Z,99044.31
2019-05-05T09:06:51.560Z,99040.80
2019-05-05T09:10:05.361Z,99042.93
2019-05-05T09:13:19.270Z,99035.70
2019-05-05T09:16:33.501Z,99031.76
2019-05-05T09:19:47.281Z,99020.42
2019-05-05T09:23:00.913Z,99026.77
2019-05-05T09:26:34.420Z,99021.53
2019-05-05T09:29:48.333Z,99019.38
2019-05-05T09:33:03.582Z,99016.49
2019-05-05T09:36:17.678Z,99015.16
2019-05-05T09:39:31.713Z,99022.45
2019-05-05T09:42:45.285Z,99022.44
2019-05-05T09:45:59.265Z,99020.61
2019-05-05T09:49:14.079Z,99033.28
2019-05-05T09:52:27.814Z,99018.15
2019-05-05T09:55:41.501Z,99014.92
2019-05-05T09:58:55.352Z,99021.69
2019-05-05T10:02:09.446Z,99010.53
2019-05-05T10:05:23.699Z,99019.27
2019-05-05T10:08:37.380Z,99014.22
2019-05-05T10:11:51.090Z,99018.44
2019-05-05T10:15:07.438Z,99019.50
2019-05-05T10:18:20.821Z,99017.33
2019-05-05T10:21:34.543Z,99013.78
2019-05-05T10:24:56.785Z,99025.32
2019-05-05T10:28:08.688Z,99036.69
2019-05-05T10:31:24.135Z,99036.86
2019-05-05T10:34:38.010Z,99019.94
2019-05-05T10:37:51.871Z,99019.10
2019-05-05T10:41:05.458Z,99035.34
2019-05-05T10:44:19.421Z,99034.09
2019-05-05T10:47:33.502Z,99013.80
2019-05-05T10:50:47.609Z,99017.88
2019-05-05T10:54:01.284Z,99035.78
2019-05-05T10:57:18.310Z,99031.49
2019-05-05T11:00:44.114Z,99021.16
2019-05-05T11:03:57.477Z,99027.61
2019-05-05T11:07:11.519Z,99030.31
2019-05-05T11:10:31.428Z,99035.41
2019-05-05T11:13:45.661Z,99044.48
2019-05-05T11:16:59.554Z,99047.80
2019-05-05T11:20:14.441Z,99052.12
2019-05-05T11:23:28.470Z,99050.26
2019-05-05T11:26:42.132Z,99048.61
2019-05-05T11:30:14.853Z,99051.17
2019-05-05T11:33:46.417Z,99053.41
2019-05-05T11:37:07.954Z,99046.25
2019-05-05T11:40:31.216Z,99047.25
2019-05-05T11:43:45.215Z,99044.95
2019-05-05T11:46:58.709Z,99050.63
2019-05-05T11:50:12.746Z,99050.67
2019-05-05T11:53:26.337Z,99047.36
2019-05-05T11:56:40.252Z,99048.11
2019-05-05T11:59:54.079Z,99037.32
2019-05-05T12:03:07.750Z,99043.21
2019-05-05T12:06:21.445Z,99044.52
2019-05-05T12:09:41.811Z,99041.89
2019-05-05T12:16:35.041Z,99036.33
2019-05-05T12:19:48.740Z,99039.47
2019-05-05T12:23:04.636Z,99038.47
2019-05-05T12:26:43.703Z,99039.30
2019-05-05T12:30:00.915Z,99029.37
2019-05-05T12:33:14.549Z,99038.11
2019-05-05T12:36:28.295Z,99046.20
2019-05-05T12:39:44.090Z,99031.90
2019-05-05T12:42:57.705Z,99033.19
2019-05-05T12:46:37.025Z,99037.41
2019-05-05T12:49:50.782Z,99032.48
2019-05-05T12:53:04.629Z,99021.47
2019-05-05T12:56:18.389Z,99022.67
2019-05-05T12:59:33.880Z,99016.84
2019-05-05T13:02:47.934Z,99013.17
2019-05-05T13:06:01.657Z,99021.44
2019-05-05T13:09:16.141Z,99010.48
2019-05-05T13:12:29.710Z,99006.22
2019-05-05T13:15:44.310Z,99001.11
2019-05-05T13:18:57.842Z,99003.94
2019-05-05T13:22:36.317Z,99012.55
2019-05-05T13:26:08.234Z,99011.09
2019-05-05T13:29:21.841Z,99013.68
2019-05-05T13:32:38.228Z,99017.09
2019-05-05T13:35:53.678Z,99011.91
2019-05-05T13:39:07.798Z,99006.54
2019-05-05T13:42:21.744Z,99012.64
2019-05-05T13:45:55.420Z,99011.08
2019-05-05T13:49:27.452Z,99014.62
2019-05-05T13:52:40.978Z,99007.34
2019-05-05T13:56:08.572Z,98993.03
2019-05-05T13:59:10.463Z,98990.84
2019-05-05T14:02:24.545Z,98985.66
2019-05-05T14:05:40.928Z,98989.64
2019-05-05T14:08:54.459Z,98986.31
2019-05-05T14:12:08.087Z,98990.47
2019-05-05T14:15:23.479Z,98984.66
2019-05-05T14:18:37.490Z,98971.19
2019-05-05T14:21:51.043Z,98965.23
2019-05-05T14:25:09.588Z,98970.80
2019-05-05T14:28:23.554Z,98970.95
2019-05-05T14:31:40.271Z,98968.22
2019-05-05T14:35:11.104Z,98976.45
2019-05-05T14:38:34.141Z,98982.17
2019-05-05T14:41:48.471Z,98984.06
2019-05-05T14:45:04.614Z,98983.33
2019-05-05T14:48:18.312Z,98987.27
2019-05-05T14:51:34.024Z,98987.09
2019-05-05T14:54:47.415Z,98994.42
2019-05-05T14:58:01.037Z,98993.54
2019-05-05T15:01:14.725Z,99003.67
2019-05-05T15:04:30.497Z,99005.30
2019-05-05T15:07:54.267Z,98995.29
2019-05-05T15:11:17.821Z,98998.78
2019-05-05T15:14:31.757Z,99002.53
2019-05-05T15:17:45.290Z,99001.80
2019-05-05T15:20:58.997Z,99005.83
2019-05-05T15:24:13.887Z,99001.70
2019-05-05T15:27:27.680Z,99005.98
2019-05-05T15:30:41.383Z,99013.92
2019-05-05T15:33:55.186Z,99016.11
2019-05-05T15:37:08.703Z,99024.58
2019-05-05T15:40:22.426Z,99025.36
2019-05-05T15:43:35.932Z,99019.56
2019-05-05T15:46:49.522Z,99022.75
2019-05-05T15:50:04.464Z,99023.20
2019-05-05T15:53:18.344Z,99028.30
2019-05-05T15:56:33.972Z,99029.85
2019-05-05T15:59:47.692Z,99029.19
2019-05-05T16:03:01.304Z,99018.06
2019-05-05T16:06:15.193Z,99014.47
2019-05-05T16:09:28.726Z,99012.23
2019-05-05T16:12:44.792Z,99013.17
2019-05-05T16:16:15.337Z,99008.25
2019-05-05T16:19:37.161Z,99009.46
2019-05-05T16:22:59.411Z,99020.30
2019-05-05T16:26:13.891Z,99011.47
2019-05-05T16:29:27.520Z,99013.52
2019-05-05T16:32:41.195Z,99009.30
2019-05-05T16:35:55.030Z,99012.77
2019-05-05T16:39:08.730Z,99007.31
2019-05-05T16:42:23.907Z,99012.50
2019-05-05T16:45:37.699Z,99008.34
2019-05-05T16:48:51.392Z,99013.61
2019-05-05T16:52:11.411Z,99011.11
2019-05-05T16:55:31.141Z,99017.23
2019-05-05T16:58:45.169Z,99012.53
2019-05-05T17:01:59.098Z,99017.64
2019-05-05T17:05:13.696Z,99017.67
2019-05-05T17:08:27.405Z,99015.53
2019-05-05T17:11:44.913Z,99010.46
2019-05-05T17:15:16.788Z,99013.56
2019-05-05T17:18:44.935Z,99013.42
2019-05-05T17:22:06.523Z,99014.12
2019-05-05T17:25:20.029Z,99014.58
2019-05-05T17:28:33.970Z,99014.97
2019-05-05T17:31:47.451Z,99020.84
2019-05-05T17:35:00.947Z,99020.41
2019-05-05T17:38:15.497Z,99025.28
2019-05-05T17:41:47.417Z,99032.72
2019-05-05T17:45:14.123Z,99024.98
2019-05-05T17:48:32.517Z,99027.09
2019-05-05T17:51:50.000Z,99030.48
2019-05-05T17:55:24.235Z,99037.48
2019-05-05T17:58:37.780Z,99033.00
2019-05-05T18:01:53.833Z,99037.77
2019-05-05T18:05:07.309Z,99041.47
2019-05-05T18:08:39.799Z,99048.06
2019-05-05T18:12:13.804Z,99048.09
2019-05-05T18:15:48.207Z,99056.08
2019-05-05T18:19:01.026Z,99066.84
2019-05-05T18:22:14.534Z,99084.55
2019-05-05T18:25:28.426Z,99097.32
2019-05-05T18:28:44.356Z,99103.91
2019-05-05T18:31:57.972Z,99112.70
2019-05-05T18:35:13.517Z,99115.34
2019-05-05T18:38:27.552Z,99114.69
2019-05-05T18:41:58.875Z,99126.98
2019-05-05T18:45:13.666Z,99138.48
2019-05-05T18:48:27.303Z,99134.89
2019-05-05T18:51:41.011Z,99140.27
2019-05-05T18:54:54.697Z,99144.72
2019-05-05T18:58:08.220Z,99141.12
2019-05-05T19:01:44.673Z,99137.17
2019-05-05T19:05:12.014Z,99133.66
2019-05-05T19:08:28.916Z,99135.13
2019-05-05T19:11:43.643Z,99133.04
2019-05-05T19:14:57.372Z,99131.84
2019-05-05T19:18:10.970Z,99137.03
2019-05-05T19:21:31.471Z,99131.26
2019-05-05T19:24:45.166Z,99137.83
2019-05-05T19:27:58.787Z,99134.15
2019-05-05T19:31:13.986Z,99137.05
2019-05-05T19:34:27.582Z,99135.95
2019-05-05T19:37:41.279Z,99141.38
2019-05-05T19:40:56.359Z,99142.58
2019-05-05T19:44:10.275Z,99142.45
2019-05-05T19:47:24.688Z,99143.58
2019-05-05T19:50:44.588Z,99147.08
2019-05-05T19:53:58.264Z,99147.76
2019-05-05T19:57:14.293Z,99153.91
2019-05-05T20:00:27.831Z,99147.55
2019-05-05T20:03:41.498Z,99147.05
2019-05-05T20:06:56.756Z,99154.55
2019-05-05T20:10:10.544Z,99154.49
2019-05-05T20:13:24.154Z,99154.27
2019-05-05T20:17:04.293Z,99157.27
2019-05-05T20:20:18.521Z,99154.84
2019-05-05T20:23:33.993Z,99157.50
2019-05-05T20:26:47.429Z,99156.72
2019-05-05T20:30:01.295Z,99152.01
2019-05-05T20:33:24.208Z,99154.40
2019-05-05T20:36:57.154Z,99160.95
2019-05-05T20:40:14.567Z,99150.91
2019-05-05T20:43:29.159Z,99155.95
2019-05-05T20:46:43.939Z,99156.44
2019-05-05T20:49:58.044Z,99159.20
2019-05-05T20:53:13.516Z,99161.83
2019-05-05T20:56:26.934Z,99156.11
2019-05-05T20:59:40.708Z,99159.23
2019-05-05T21:02:54.208Z,99163.50
2019-05-05T21:06:07.685Z,99162.04
2019-05-05T21:09:21.731Z,99160.09
2019-05-05T21:16:35.746Z,99156.00
2019-05-05T21:19:49.267Z,99159.02
2019-05-05T21:23:10.758Z,99170.30
2019-05-05T21:26:47.158Z,99163.69
2019-05-05T21:30:00.764Z,99166.36
2019-05-05T21:33:14.681Z,99163.63
2019-05-05T21:36:28.162Z,99162.78
2019-05-05T21:39:41.759Z,99160.02
2019-05-05T21:42:55.350Z,99160.23
2019-05-05T21:46:09.169Z,99157.47
2019-05-05T21:49:24.217Z,99152.39
2019-05-05T21:52:45.920Z,99158.54
2019-05-05T21:56:28.027Z,99159.12
2019-05-05T21:59:54.410Z,99157.27
2019-05-05T22:02:57.816Z,99157.73
2019-05-05T22:06:11.408Z,99156.46
2019-05-05T22:09:24.893Z,99162.33
2019-05-05T22:12:38.917Z,99158.51
2019-05-05T22:15:54.446Z,99155.02
2019-05-05T22:19:08.025Z,99153.08
2019-05-05T22:22:23.608Z,99148.20
2019-05-05T22:25:37.096Z,99150.27
2019-05-05T22:28:50.595Z,99145.09
2019-05-05T22:32:06.212Z,99147.81
2019-05-05T22:35:19.778Z,99155.02
2019-05-05T22:38:33.961Z,99155.37
2019-05-05T22:41:47.858Z,99153.66
2019-05-05T22:45:01.600Z,99154.51
2019-05-05T22:48:15.518Z,99158.30
2019-05-05T22:51:29.097Z,99159.73
2019-05-05T22:54:44.424Z,99158.45
2019-05-05T22:57:58.024Z,99160.80
2019-05-05T23:01:13.608Z,99159.19
2019-05-05T23:04:34.960Z,99162.20
2019-05-05T23:07:48.971Z,99164.66
2019-05-05T23:11:04.039Z,99156.59
2019-05-05T23:14:27.260Z,99156.89
2019-05-05T23:17:54.332Z,99159.98
2019-05-05T23:21:34.269Z,99161.09
2019-05-05T23:24:54.207Z,99161.26
2019-05-05T23:28:08.061Z,99161.09
2019-05-05T23:31:23.973Z,99160.58
2019-05-05T23:34:37.101Z,99167.11
2019-05-05T23:37:50.700Z,99166.68
2019-05-05T23:41:04.313Z,99167.14
2019-05-05T23:44:18.069Z,99168.92
2019-05-05T23:47:31.677Z,99172.28
2019-05-05T23:50:45.509Z,99168.25
2019-05-05T23:53:59.000Z,99160.66
2019-05-05T23:57:13.747Z,99168.89
